createdAt,value
2023-04-10T00:00:38.156Z,4.96
2023-04-10T00:03:05.127Z,5.03
2023-04-10T00:05:34.533Z,4.84
2023-04-10T00:08:04.082Z,4.79
2023-04-10T00:10:33.453Z,4.64
2023-04-10T00:13:00.971Z,4.60
2023-04-10T00:15:28.864Z,4.47
2023-04-10T00:17:55.712Z,4.65
2023-04-10T00:20:23.267Z,4.59
2023-04-10T00:22:49.968Z,4.55
2023-04-10T00:25:19.193Z,4.56
2023-04-10T00:27:46.099Z,4.67
2023-04-10T00:30:15.017Z,4.49
2023-04-10T00:32:44.144Z,4.58
2023-04-10T00:35:15.648Z,4.38
2023-04-10T00:37:44.462Z,4.27
2023-04-10T00:40:11.405Z,4.21
2023-04-10T00:42:40.370Z,4.16
2023-04-10T00:45:07.403Z,4.44
2023-04-10T00:47:35.252Z,4.44
2023-04-10T00:50:02.030Z,4.49
2023-04-10T00:52:32.237Z,4.55
2023-04-10T00:55:01.036Z,4.57
2023-04-10T00:57:30.424Z,4.48
2023-04-10T00:59:57.030Z,4.61
2023-04-10T01:02:23.875Z,4.57
2023-04-10T01:04:50.875Z,4.55
2023-04-10T01:07:18.948Z,4.54
2023-04-10T01:09:59.103Z,4.43
2023-04-10T01:12:37.929Z,4.22
2023-04-10T01:15:04.542Z,4.17
2023-04-10T01:17:45.666Z,4.09
2023-04-10T01:20:19.168Z,4.06
2023-04-10T01:23:21.947Z,4.21
2023-04-10T01:25:54.067Z,4.36
2023-04-10T01:28:39.121Z,4.44
2023-04-10T01:31:08.855Z,4.47
2023-04-10T01:33:56.838Z,4.45
2023-04-10T01:36:29.584Z,4.33
2023-04-10T01:38:58.236Z,4.30
2023-04-10T01:41:26.821Z,4.42
2023-04-10T01:44:01.274Z,4.34
2023-04-10T01:46:29.657Z,4.18
2023-04-10T01:48:58.157Z,4.19
2023-04-10T01:51:26.346Z,4.36
2023-04-10T01:53:53.433Z,4.42
2023-04-10T01:56:22.669Z,4.25
2023-04-10T01:58:50.634Z,4.49
2023-04-10T02:01:29.139Z,4.58
2023-04-10T02:03:59.351Z,4.57
2023-04-10T02:06:37.656Z,4.65
2023-04-10T02:09:16.528Z,4.72
2023-04-10T02:11:57.417Z,4.60
2023-04-10T02:14:29.293Z,4.62
2023-04-10T02:17:01.666Z,4.68
2023-04-10T02:19:31.117Z,4.61
2023-04-10T02:22:01.634Z,4.59
2023-04-10T02:24:31.955Z,4.61
2023-04-10T02:26:58.544Z,4.42
2023-04-10T02:29:25.152Z,4.42
2023-04-10T02:31:51.715Z,4.37
2023-04-10T02:34:20.835Z,4.28
2023-04-10T02:36:49.634Z,4.28
2023-04-10T02:39:20.673Z,4.14
2023-04-10T02:41:49.740Z,4.17
2023-04-10T02:44:18.607Z,3.95
2023-04-10T02:46:47.732Z,3.91
2023-04-10T02:49:19.005Z,3.86
2023-04-10T02:51:47.807Z,3.76
2023-04-10T02:54:17.690Z,3.95
2023-04-10T02:56:44.611Z,4.06
2023-04-10T02:59:13.489Z,4.02
2023-04-10T03:01:42.659Z,4.14
2023-04-10T03:04:11.914Z,4.18
2023-04-10T03:06:41.322Z,4.15
2023-04-10T03:09:12.688Z,4.08
2023-04-10T03:11:41.500Z,3.97
2023-04-10T03:14:09.796Z,3.93
2023-04-10T03:16:36.666Z,4.00
2023-04-10T03:19:05.763Z,3.97
2023-04-10T03:21:34.660Z,3.87
2023-04-10T03:24:01.220Z,3.73
2023-04-10T03:26:28.342Z,3.91
2023-04-10T03:28:54.962Z,3.80
2023-04-10T03:31:21.680Z,3.67
2023-04-10T03:33:48.311Z,3.80
2023-04-10T03:36:17.210Z,3.74
2023-04-10T03:38:43.848Z,3.68
2023-04-10T03:41:10.444Z,3.50
2023-04-10T03:43:39.494Z,3.37
2023-04-10T03:46:06.476Z,3.50
2023-04-10T03:48:33.541Z,3.47
2023-04-10T03:51:00.073Z,3.60
2023-04-10T03:53:26.705Z,3.77
2023-04-10T03:55:53.316Z,3.86
2023-04-10T03:58:22.167Z,3.88
2023-04-10T04:00:51.572Z,3.90
2023-04-10T04:03:18.264Z,3.86
2023-04-10T04:05:44.998Z,3.88
2023-04-10T04:08:14.092Z,3.90
2023-04-10T04:10:40.712Z,3.88
2023-04-10T04:13:07.309Z,3.76
2023-04-10T04:15:38.772Z,3.80
2023-04-10T04:18:05.414Z,3.86
2023-04-10T04:20:34.370Z,3.75
2023-04-10T04:23:03.472Z,3.82
2023-04-10T04:25:30.066Z,3.87
2023-04-10T04:27:58.840Z,3.85
2023-04-10T04:30:25.425Z,3.88
2023-04-10T04:32:52.092Z,3.89
2023-04-10T04:35:21.521Z,3.85
2023-04-10T04:37:47.994Z,3.69
2023-04-10T04:40:14.619Z,3.68
2023-04-10T04:42:43.436Z,3.60
2023-04-10T04:45:15.670Z,3.60
2023-04-10T04:47:44.318Z,3.64
2023-04-10T04:50:10.962Z,3.73
2023-04-10T04:52:37.533Z,3.81
2023-04-10T04:55:04.350Z,3.54
2023-04-10T04:57:33.186Z,3.74
2023-04-10T04:59:59.744Z,3.88
2023-04-10T05:02:26.472Z,3.89
2023-04-10T05:04:53.158Z,3.86
2023-04-10T05:07:22.355Z,4.07
2023-04-10T05:09:49.254Z,4.11
2023-04-10T05:12:15.847Z,4.16
2023-04-10T05:14:42.407Z,4.20
2023-04-10T05:17:09.058Z,4.05
2023-04-10T05:19:35.666Z,4.07
2023-04-10T05:22:02.314Z,4.12
2023-04-10T05:24:28.914Z,4.14
2023-04-10T05:26:55.749Z,4.24
2023-04-10T05:29:22.835Z,4.37
2023-04-10T05:31:50.224Z,4.35
2023-04-10T05:34:18.204Z,4.44
2023-04-10T05:36:44.782Z,4.42
2023-04-10T05:39:11.313Z,4.43
2023-04-10T05:41:40.331Z,4.57
2023-04-10T05:44:06.983Z,4.58
2023-04-10T05:46:38.773Z,4.70
2023-04-10T05:49:05.409Z,4.70
2023-04-10T05:51:34.672Z,4.87
2023-04-10T05:54:01.351Z,4.95
2023-04-10T05:56:30.119Z,5.10
2023-04-10T05:58:59.090Z,5.26
2023-04-10T06:01:25.634Z,5.30
2023-04-10T06:03:54.552Z,5.41
2023-04-10T06:06:25.952Z,5.51
2023-04-10T06:08:53.526Z,5.39
2023-04-10T06:11:22.709Z,5.47
2023-04-10T06:13:49.230Z,5.62
2023-04-10T06:16:16.487Z,5.68
2023-04-10T06:18:43.332Z,5.74
2023-04-10T06:21:12.128Z,5.88
2023-04-10T06:23:38.677Z,5.94
2023-04-10T06:26:05.386Z,6.05
2023-04-10T06:28:31.976Z,6.17
2023-04-10T06:30:58.617Z,6.44
2023-04-10T06:33:27.305Z,6.60
2023-04-10T06:35:58.492Z,6.62
2023-04-10T06:38:27.429Z,6.74
2023-04-10T06:40:56.528Z,6.94
2023-04-10T06:43:23.149Z,7.13
2023-04-10T06:45:52.094Z,7.25
2023-04-10T06:48:23.434Z,7.42
2023-04-10T06:50:52.559Z,7.69
2023-04-10T06:53:19.143Z,7.77
2023-04-10T06:55:48.494Z,7.86
2023-04-10T06:58:15.061Z,8.02
2023-04-10T07:00:44.637Z,8.37
2023-04-10T07:03:16.196Z,8.61
2023-04-10T07:05:45.635Z,8.90
2023-04-10T07:08:12.154Z,9.05
2023-04-10T07:10:38.781Z,9.15
2023-04-10T07:13:08.398Z,9.49
2023-04-10T07:15:34.917Z,9.58
2023-04-10T07:18:03.799Z,9.72
2023-04-10T07:20:33.142Z,9.94
2023-04-10T07:22:59.713Z,10.11
2023-04-10T07:25:26.466Z,10.19
2023-04-10T07:27:54.213Z,10.08
2023-04-10T07:30:21.037Z,10.10
2023-04-10T07:32:47.993Z,10.39
2023-04-10T07:35:14.994Z,10.66
2023-04-10T07:37:50.272Z,10.66
2023-04-10T07:40:19.116Z,10.59
2023-04-10T07:42:46.149Z,10.69
2023-04-10T07:45:12.759Z,10.87
2023-04-10T07:47:39.352Z,10.99
2023-04-10T07:50:06.941Z,11.21
2023-04-10T07:52:36.080Z,11.30
2023-04-10T07:55:10.538Z,11.41
2023-04-10T07:57:37.152Z,11.30
2023-04-10T08:00:03.905Z,11.53
2023-04-10T08:02:33.247Z,11.68
2023-04-10T08:05:02.351Z,11.98
2023-04-10T08:07:28.860Z,12.15
2023-04-10T08:09:55.452Z,12.23
2023-04-10T08:12:21.977Z,12.26
2023-04-10T08:14:49.502Z,12.19
2023-04-10T08:17:16.192Z,12.00
2023-04-10T08:19:43.428Z,12.11
2023-04-10T08:22:12.269Z,12.17
2023-04-10T08:24:41.167Z,12.26
2023-04-10T08:27:07.730Z,12.24
2023-04-10T08:29:34.253Z,12.49
2023-04-10T08:32:01.155Z,12.34
2023-04-10T08:34:28.303Z,12.40
2023-04-10T08:36:56.167Z,12.50
2023-04-10T08:39:25.322Z,12.65
2023-04-10T08:41:55.379Z,12.88
2023-04-10T08:44:21.986Z,12.77
2023-04-10T08:46:49.704Z,12.77
2023-04-10T08:49:24.364Z,12.85
2023-04-10T08:52:01.176Z,13.01
2023-04-10T08:54:34.087Z,13.02
2023-04-10T08:57:04.864Z,12.98
2023-04-10T08:59:31.618Z,13.20
2023-04-10T09:01:59.178Z,13.27
2023-04-10T09:04:26.653Z,13.26
2023-04-10T09:06:53.638Z,13.40
2023-04-10T09:09:20.573Z,13.49
2023-04-10T09:12:01.077Z,13.54
2023-04-10T09:21:31.347Z,13.46
2023-04-10T09:24:16.103Z,13.58
2023-04-10T09:26:42.696Z,13.62
2023-04-10T09:29:18.139Z,13.84
2023-04-10T09:31:50.889Z,14.06
2023-04-10T09:34:27.023Z,14.22
2023-04-10T09:36:56.106Z,14.17
2023-04-10T09:46:28.808Z,14.60
2023-04-10T09:49:04.663Z,14.54
2023-04-10T09:51:39.563Z,14.56
2023-04-10T09:54:06.892Z,14.65
2023-04-10T09:56:40.121Z,14.72
2023-04-10T09:59:24.793Z,14.46
2023-04-10T10:02:00.961Z,14.24
2023-04-10T10:04:30.655Z,14.13
2023-04-10T10:07:06.437Z,14.25
2023-04-10T10:09:44.603Z,14.40
2023-04-10T10:19:45.519Z,14.47
2023-04-10T10:22:13.239Z,14.41
2023-04-10T10:24:47.347Z,14.31
2023-04-10T10:27:18.140Z,13.98
2023-04-10T10:29:49.719Z,14.24
2023-04-10T10:32:18.513Z,14.21
2023-04-10T10:34:48.070Z,14.24
2023-04-10T10:37:17.964Z,14.15
2023-04-10T10:39:57.619Z,14.02
2023-04-10T10:42:46.828Z,14.02
2023-04-10T10:45:20.603Z,13.88
2023-04-10T10:47:57.036Z,14.08
2023-04-10T10:50:24.853Z,14.13
2023-04-10T10:52:54.031Z,14.22
2023-04-10T10:55:27.446Z,14.29
2023-04-10T10:58:00.698Z,14.20
2023-04-10T11:00:49.920Z,14.29
2023-04-10T11:03:16.555Z,13.94
2023-04-10T11:05:54.229Z,13.82
2023-04-10T11:08:32.732Z,13.63
2023-04-10T11:11:03.916Z,13.65
2023-04-10T11:13:32.934Z,13.61
2023-04-10T11:16:03.004Z,13.53
2023-04-10T11:18:44.684Z,13.49
2023-04-10T11:21:15.275Z,13.40
2023-04-10T11:23:50.762Z,13.44
2023-04-10T11:26:38.722Z,13.25
2023-04-10T11:29:19.575Z,13.20
2023-04-10T11:31:58.406Z,13.22
2023-04-10T11:34:27.728Z,13.24
2023-04-10T11:36:57.190Z,13.38
2023-04-10T11:39:26.705Z,13.40
2023-04-10T11:41:54.180Z,13.33
2023-04-10T11:44:43.263Z,13.42
2023-04-10T11:47:13.156Z,13.50
2023-04-10T11:49:39.856Z,13.51
2023-04-10T11:52:09.156Z,13.36
2023-04-10T11:54:37.763Z,13.31
2023-04-10T11:57:12.980Z,13.17
2023-04-10T11:59:39.420Z,13.26
2023-04-10T12:02:07.621Z,13.18
2023-04-10T12:04:34.953Z,13.13
2023-04-10T12:07:01.873Z,13.20
2023-04-10T12:09:28.668Z,13.04
2023-04-10T12:11:56.897Z,13.20
2023-04-10T12:14:36.969Z,13.24
2023-04-10T12:17:05.482Z,13.54
2023-04-10T12:19:36.081Z,13.63
2023-04-10T12:22:03.161Z,13.43
2023-04-10T12:24:54.501Z,13.26
2023-04-10T12:27:23.761Z,13.27
2023-04-10T12:29:52.373Z,13.51
2023-04-10T12:32:19.592Z,13.34
2023-04-10T12:34:52.883Z,13.15
2023-04-10T12:37:20.724Z,13.14
2023-04-10T12:39:49.877Z,12.96
2023-04-10T12:42:22.700Z,12.94
2023-04-10T12:44:56.624Z,13.02
2023-04-10T12:47:26.228Z,13.13
2023-04-10T12:50:14.089Z,13.22
2023-04-10T12:52:44.877Z,13.36
2023-04-10T12:55:13.135Z,13.68
2023-04-10T12:57:44.226Z,13.81
2023-04-10T13:00:12.926Z,13.86
2023-04-10T13:02:42.604Z,13.99
2023-04-10T13:05:10.004Z,14.27
2023-04-10T13:07:37.448Z,14.40
2023-04-10T13:10:05.936Z,14.36
2023-04-10T13:12:32.762Z,14.25
2023-04-10T13:14:59.868Z,14.17
2023-04-10T13:17:26.611Z,13.92
2023-04-10T13:19:53.646Z,14.18
2023-04-10T13:22:20.862Z,14.57
2023-04-10T13:24:52.169Z,14.71
2023-04-10T13:27:21.101Z,14.62
2023-04-10T13:29:50.124Z,14.85
2023-04-10T13:32:16.974Z,15.02
2023-04-10T13:34:43.504Z,14.79
2023-04-10T13:37:13.101Z,14.68
2023-04-10T13:39:39.680Z,14.67
2023-04-10T13:42:08.951Z,14.56
2023-04-10T13:45:47.116Z,14.73
2023-04-10T13:48:59.807Z,14.19
2023-04-10T13:51:29.811Z,14.24
2023-04-10T13:54:02.837Z,14.01
2023-04-10T13:56:30.258Z,14.41
2023-04-10T13:58:57.095Z,14.53
2023-04-10T14:01:26.414Z,14.64
2023-04-10T14:03:55.538Z,14.72
2023-04-10T14:06:22.244Z,14.67
2023-04-10T14:08:48.877Z,14.70
2023-04-10T14:11:15.521Z,14.90
2023-04-10T14:13:42.124Z,15.07
2023-04-10T14:16:08.813Z,15.22
2023-04-10T14:18:36.560Z,15.26
2023-04-10T14:21:03.565Z,15.20
2023-04-10T14:23:32.405Z,15.13
2023-04-10T14:25:59.220Z,15.34
2023-04-10T14:28:25.755Z,15.45
2023-04-10T14:30:52.404Z,15.58
2023-04-10T14:33:20.058Z,15.63
2023-04-10T14:35:47.724Z,15.33
2023-04-10T14:38:16.638Z,15.18
2023-04-10T14:40:45.748Z,15.23
2023-04-10T14:43:12.409Z,15.26
2023-04-10T14:45:38.980Z,15.00
2023-04-10T14:48:05.850Z,15.24
2023-04-10T14:50:33.108Z,15.20
2023-04-10T14:53:00.654Z,15.12
2023-04-10T14:55:32.201Z,14.62
2023-04-10T14:57:59.044Z,14.78
2023-04-10T15:00:26.128Z,14.59
2023-04-10T15:02:57.281Z,14.58
2023-04-10T15:05:25.557Z,14.67
2023-04-10T15:07:57.380Z,14.93
2023-04-10T15:10:24.059Z,15.21
2023-04-10T15:12:53.606Z,15.41
2023-04-10T15:15:22.686Z,15.58
2023-04-10T15:17:49.547Z,15.55
2023-04-10T15:20:16.291Z,15.35
2023-04-10T15:22:43.370Z,15.06
2023-04-10T15:25:12.130Z,15.21
2023-04-10T15:27:41.795Z,15.39
2023-04-10T15:30:11.578Z,15.45
2023-04-10T15:32:38.648Z,15.49
2023-04-10T15:35:06.049Z,15.54
2023-04-10T15:37:35.584Z,15.45
2023-04-10T15:40:04.796Z,15.37
2023-04-10T15:42:33.644Z,15.49
2023-04-10T15:45:00.711Z,15.20
2023-04-10T15:47:30.105Z,15.55
2023-04-10T15:49:57.299Z,15.37
2023-04-10T15:52:23.827Z,15.18
2023-04-10T15:54:51.402Z,14.95
2023-04-10T15:57:18.222Z,14.79
2023-04-10T15:59:47.110Z,14.82
2023-04-10T16:02:16.311Z,14.88
2023-04-10T16:04:45.372Z,14.86
2023-04-10T16:07:11.980Z,14.59
2023-04-10T16:09:40.822Z,14.57
2023-04-10T16:12:07.475Z,14.68
2023-04-10T16:14:36.497Z,14.72
2023-04-10T16:17:07.684Z,14.79
2023-04-10T16:19:34.242Z,14.58
2023-04-10T16:22:00.785Z,14.68
2023-04-10T16:24:29.603Z,14.95
2023-04-10T16:26:58.472Z,14.71
2023-04-10T16:29:28.695Z,14.86
2023-04-10T16:31:55.458Z,14.93
2023-04-10T16:34:22.242Z,14.61
2023-04-10T16:36:48.829Z,14.55
2023-04-10T16:39:15.418Z,14.46
2023-04-10T16:41:42.010Z,14.36
2023-04-10T16:44:13.236Z,14.43
2023-04-10T16:46:39.928Z,14.23
2023-04-10T16:49:06.788Z,14.33
2023-04-10T16:51:33.406Z,14.19
2023-04-10T16:54:04.760Z,14.14
2023-04-10T16:56:32.614Z,14.31
2023-04-10T16:59:02.533Z,14.21
2023-04-10T17:01:31.597Z,14.33
2023-04-10T17:04:00.822Z,14.25
2023-04-10T17:06:29.657Z,14.23
2023-04-10T17:08:56.416Z,14.38
2023-04-10T17:11:23.324Z,14.29
2023-04-10T17:13:49.913Z,14.27
2023-04-10T17:16:16.538Z,14.27
2023-04-10T17:18:48.118Z,14.42
2023-04-10T17:21:14.789Z,14.22
2023-04-10T17:23:41.827Z,14.19
2023-04-10T17:26:15.887Z,14.25
2023-04-10T17:28:46.755Z,14.23
2023-04-10T17:31:14.296Z,14.27
2023-04-10T17:33:44.337Z,14.28
2023-04-10T17:36:15.331Z,14.07
2023-04-10T17:38:44.304Z,14.04
2023-04-10T17:41:16.027Z,14.12
2023-04-10T17:43:44.973Z,13.80
2023-04-10T17:46:15.463Z,13.87
2023-04-10T17:48:45.579Z,13.83
2023-04-10T17:51:12.371Z,13.73
2023-04-10T17:53:42.031Z,13.74
2023-04-10T17:56:16.625Z,13.60
2023-04-10T17:58:45.665Z,13.61
2023-04-10T18:01:12.772Z,13.52
2023-04-10T18:03:41.798Z,13.53
2023-04-10T18:06:10.598Z,13.64
2023-04-10T18:08:38.255Z,13.53
2023-04-10T18:11:07.633Z,13.59
2023-04-10T18:13:34.424Z,13.77
2023-04-10T18:16:02.422Z,13.76
2023-04-10T18:18:31.478Z,13.80
2023-04-10T18:21:00.307Z,13.79
2023-04-10T18:23:30.927Z,13.87
2023-04-10T18:25:57.497Z,13.90
2023-04-10T18:28:26.556Z,14.04
2023-04-10T18:30:56.864Z,13.92
2023-04-10T18:33:27.352Z,13.87
2023-04-10T18:35:59.089Z,13.79
2023-04-10T18:38:26.723Z,13.73
2023-04-10T18:40:59.918Z,13.72
2023-04-10T18:43:29.409Z,13.87
2023-04-10T18:45:56.099Z,13.83
2023-04-10T18:48:27.824Z,13.75
2023-04-10T18:50:56.870Z,13.48
2023-04-10T18:53:26.414Z,13.22
2023-04-10T18:55:53.893Z,13.10
2023-04-10T18:58:21.773Z,13.05
2023-04-10T19:00:50.942Z,12.75
2023-04-10T19:03:22.407Z,12.77
2023-04-10T19:05:49.354Z,12.70
2023-04-10T19:08:17.110Z,12.28
2023-04-10T19:10:43.706Z,12.07
2023-04-10T19:13:12.462Z,12.17
2023-04-10T19:15:45.908Z,12.39
2023-04-10T19:18:16.514Z,12.27
2023-04-10T19:20:52.087Z,11.97
2023-04-10T19:23:24.888Z,12.27
2023-04-10T19:25:59.587Z,12.41
2023-04-10T19:28:26.395Z,12.44
2023-04-10T19:30:52.975Z,12.31
2023-04-10T19:33:20.464Z,12.25
2023-04-10T19:35:49.354Z,12.25
2023-04-10T19:38:20.692Z,12.31
2023-04-10T19:40:47.460Z,12.28
2023-04-10T19:43:14.074Z,12.26
2023-04-10T19:45:40.767Z,12.22
2023-04-10T19:48:08.158Z,12.27
2023-04-10T19:50:37.063Z,12.14
2023-04-10T19:53:04.394Z,12.03
2023-04-10T19:55:36.100Z,11.97
2023-04-10T19:58:02.699Z,11.76
2023-04-10T20:00:32.016Z,11.81
2023-04-10T20:03:00.920Z,11.67
2023-04-10T20:05:30.465Z,11.64
2023-04-10T20:07:57.010Z,11.60
2023-04-10T20:10:23.732Z,11.69
2023-04-10T20:12:52.328Z,11.69
2023-04-10T20:15:20.545Z,11.60
2023-04-10T20:17:47.185Z,11.34
2023-04-10T20:20:13.915Z,11.24
2023-04-10T20:22:40.554Z,11.28
2023-04-10T20:25:10.143Z,11.36
2023-04-10T20:27:36.861Z,11.38
2023-04-10T20:30:04.250Z,11.41
2023-04-10T20:32:30.819Z,11.37
2023-04-10T20:34:59.737Z,11.24
2023-04-10T20:37:28.807Z,11.18
2023-04-10T20:39:57.524Z,11.25
2023-04-10T20:42:24.188Z,11.28
2023-04-10T20:44:53.842Z,11.20
2023-04-10T20:47:20.390Z,11.14
2023-04-10T20:49:49.402Z,11.13
2023-04-10T20:52:16.110Z,11.14
2023-04-10T20:54:42.688Z,10.98
2023-04-10T20:57:09.456Z,10.90
2023-04-10T20:59:36.739Z,10.84
2023-04-10T21:02:03.672Z,10.68
2023-04-10T21:04:30.525Z,10.57
2023-04-10T21:06:57.403Z,10.41
2023-04-10T21:09:24.308Z,10.42
2023-04-10T21:11:53.190Z,10.47
2023-04-10T21:14:22.244Z,10.50
2023-04-10T21:16:48.912Z,10.40
2023-04-10T21:19:17.622Z,10.44
2023-04-10T21:21:44.460Z,10.29
2023-04-10T21:24:13.394Z,10.27
2023-04-10T21:26:39.964Z,9.78
2023-04-10T21:29:06.641Z,9.93
2023-04-10T21:31:35.855Z,9.92
2023-04-10T21:34:02.501Z,10.02
2023-04-10T21:36:31.825Z,10.00
2023-04-10T21:39:00.842Z,10.03
2023-04-10T21:41:27.427Z,10.10
2023-04-10T21:43:56.657Z,10.08
2023-04-10T21:46:23.492Z,10.06
2023-04-10T21:48:50.991Z,9.79
2023-04-10T21:51:17.750Z,9.81
2023-04-10T21:53:44.311Z,9.83
2023-04-10T21:56:20.793Z,9.85
2023-04-10T21:58:47.392Z,9.82
2023-04-10T22:01:14.074Z,9.82
2023-04-10T22:03:40.825Z,9.77
2023-04-10T22:06:09.061Z,9.73
2023-04-10T22:08:38.472Z,9.71
2023-04-10T22:11:06.077Z,9.42
2023-04-10T22:13:32.877Z,9.12
2023-04-10T22:16:07.117Z,9.33
2023-04-10T22:18:36.628Z,9.34
2023-04-10T22:21:05.964Z,9.06
2023-04-10T22:23:32.556Z,9.10
2023-04-10T22:26:04.408Z,9.22
2023-04-10T22:28:33.491Z,9.20
2023-04-10T22:31:05.658Z,9.21
2023-04-10T22:33:33.332Z,9.22
2023-04-10T22:35:59.982Z,9.20
2023-04-10T22:38:26.680Z,9.18
2023-04-10T22:40:56.546Z,9.16
2023-04-10T22:43:25.672Z,9.00
2023-04-10T22:45:55.372Z,9.00
2023-04-10T22:48:24.581Z,8.90
2023-04-10T22:50:51.294Z,8.84
2023-04-10T22:53:20.822Z,8.77
2023-04-10T22:55:47.847Z,8.69
2023-04-10T22:58:16.989Z,8.62
2023-04-10T23:00:45.916Z,8.42
2023-04-10T23:03:12.657Z,8.27
2023-04-10T23:05:39.428Z,8.36
2023-04-10T23:08:06.085Z,8.40
2023-04-10T23:10:32.627Z,8.39
2023-04-10T23:12:59.493Z,8.40
2023-04-10T23:15:28.430Z,7.99
2023-04-10T23:17:55.127Z,8.16
2023-04-10T23:20:25.396Z,8.03
2023-04-10T23:22:52.120Z,8.20
2023-04-10T23:25:23.442Z,8.13
2023-04-10T23:27:53.555Z,8.16
2023-04-10T23:30:22.898Z,8.14
2023-04-10T23:32:49.520Z,8.19
2023-04-10T23:35:16.163Z,7.79
2023-04-10T23:37:42.735Z,7.96
2023-04-10T23:40:12.383Z,8.15
2023-04-10T23:42:38.968Z,7.96
2023-04-10T23:45:06.409Z,7.99
2023-04-10T23:47:35.281Z,7.99
2023-04-10T23:50:02.235Z,7.86
2023-04-10T23:52:29.037Z,7.97
2023-04-10T23:54:56.525Z,7.95
2023-04-10T23:57:25.323Z,7.73
2023-04-10T23:59:54.371Z,7.59
